createdAt,value
2018-07-04T00:01:45.571Z,16.66
2018-07-04T00:04:32.334Z,16.61
2018-07-04T00:07:18.790Z,16.59
2018-07-04T00:10:05.111Z,16.64
2018-07-04T00:12:51.503Z,16.48
2018-07-04T00:15:38.115Z,16.46
2018-07-04T00:18:24.511Z,16.42
2018-07-04T00:21:11.131Z,16.40
2018-07-04T00:23:57.595Z,16.34
2018-07-04T00:26:44.035Z,16.21
2018-07-04T00:29:30.479Z,16.15
2018-07-04T00:32:16.863Z,16.18
2018-07-04T00:35:03.272Z,16.24
2018-07-04T00:37:50.099Z,16.14
2018-07-04T00:40:36.647Z,16.12
2018-07-04T00:43:23.740Z,16.07
2018-07-04T00:46:10.500Z,16.01
2018-07-04T00:48:56.890Z,16.01
2018-07-04T00:51:43.295Z,16.09
2018-07-04T00:54:29.627Z,16.11
2018-07-04T00:57:16.879Z,16.10
2018-07-04T01:00:03.458Z,16.03
2018-07-04T01:02:49.835Z,15.96
2018-07-04T01:05:36.235Z,15.97
2018-07-04T01:08:22.578Z,15.89
2018-07-04T01:11:09.073Z,15.89
2018-07-04T01:13:55.479Z,15.88
2018-07-04T01:16:41.875Z,15.74
2018-07-04T01:19:28.263Z,15.66
2018-07-04T01:22:14.642Z,15.49
2018-07-04T01:25:00.986Z,15.59
2018-07-04T01:27:47.393Z,15.53
2018-07-04T01:30:33.731Z,15.65
2018-07-04T01:33:20.067Z,15.69
2018-07-04T01:36:06.533Z,15.66
2018-07-04T01:38:52.954Z,15.61
2018-07-04T01:41:39.638Z,15.52
2018-07-04T01:44:25.987Z,15.63
2018-07-04T01:47:12.468Z,15.58
2018-07-04T01:49:59.227Z,15.53
2018-07-04T01:52:45.641Z,15.60
2018-07-04T01:55:32.088Z,15.61
2018-07-04T01:58:18.454Z,15.55
2018-07-04T02:01:04.858Z,15.46
2018-07-04T02:03:51.255Z,15.52
2018-07-04T02:06:37.711Z,15.53
2018-07-04T02:09:24.083Z,15.54
2018-07-04T02:12:10.607Z,15.58
2018-07-04T02:14:57.175Z,15.40
2018-07-04T02:17:43.605Z,15.43
2018-07-04T02:20:30.252Z,15.53
2018-07-04T02:23:17.063Z,15.55
2018-07-04T02:26:03.466Z,15.73
2018-07-04T02:28:49.979Z,15.67
2018-07-04T02:31:36.587Z,15.56
2018-07-04T02:34:25.531Z,15.49
2018-07-04T02:37:12.163Z,15.45
2018-07-04T02:39:58.848Z,15.45
2018-07-04T02:42:45.243Z,15.39
2018-07-04T02:45:31.661Z,15.21
2018-07-04T02:48:18.185Z,15.23
2018-07-04T02:51:04.306Z,15.23
2018-07-04T02:53:51.827Z,15.27
2018-07-04T02:56:38.199Z,15.21
2018-07-04T02:59:24.632Z,15.21
2018-07-04T03:02:11.031Z,15.08
2018-07-04T03:04:57.455Z,15.07
2018-07-04T03:07:44.111Z,15.04
2018-07-04T03:10:30.716Z,15.05
2018-07-04T03:13:17.178Z,15.02
2018-07-04T03:16:03.803Z,15.04
2018-07-04T03:18:50.375Z,14.95
2018-07-04T03:21:37.106Z,14.82
2018-07-04T03:24:23.500Z,14.79
2018-07-04T03:27:09.932Z,14.74
2018-07-04T03:29:56.291Z,14.72
2018-07-04T03:32:42.747Z,14.74
2018-07-04T03:35:29.120Z,14.80
2018-07-04T03:38:15.432Z,14.86
2018-07-04T03:41:01.900Z,15.00
2018-07-04T03:43:48.483Z,15.14
2018-07-04T03:46:34.847Z,15.10
2018-07-04T03:49:21.719Z,15.02
2018-07-04T03:52:08.111Z,15.06
2018-07-04T03:54:54.536Z,15.15
2018-07-04T03:57:40.924Z,15.36
2018-07-04T04:00:27.512Z,15.38
2018-07-04T04:03:13.851Z,15.44
2018-07-04T04:06:00.463Z,15.55
2018-07-04T04:08:46.831Z,15.56
2018-07-04T04:11:33.389Z,15.66
2018-07-04T04:14:19.759Z,15.73
2018-07-04T04:17:06.332Z,15.86
2018-07-04T04:19:53.147Z,15.90
2018-07-04T04:22:39.449Z,15.89
2018-07-04T04:25:25.935Z,16.02
2018-07-04T04:28:12.339Z,16.35
2018-07-04T04:30:58.791Z,16.25
2018-07-04T04:33:45.235Z,16.44
2018-07-04T04:36:31.575Z,16.77
2018-07-04T04:39:17.947Z,16.96
2018-07-04T04:42:04.351Z,17.20
2018-07-04T04:44:50.751Z,17.36
2018-07-04T04:47:37.111Z,17.15
2018-07-04T04:50:23.555Z,17.21
2018-07-04T04:53:10.020Z,17.45
2018-07-04T04:55:56.383Z,17.56
2018-07-04T04:58:42.795Z,17.73
2018-07-04T05:01:29.136Z,17.91
2018-07-04T05:04:15.510Z,18.10
2018-07-04T05:07:02.608Z,18.07
2018-07-04T05:09:49.055Z,18.19
2018-07-04T05:12:35.710Z,18.45
2018-07-04T05:15:22.163Z,18.80
2018-07-04T05:18:08.566Z,18.50
2018-07-04T05:20:55.120Z,18.63
2018-07-04T05:23:41.731Z,19.09
2018-07-04T05:26:28.123Z,19.10
2018-07-04T05:29:14.496Z,19.16
2018-07-04T05:32:01.126Z,19.64
2018-07-04T05:34:48.124Z,19.68
2018-07-04T05:37:35.495Z,19.76
2018-07-04T05:40:21.775Z,20.08
2018-07-04T05:43:08.199Z,20.00
2018-07-04T05:45:54.568Z,20.21
2018-07-04T05:48:41.103Z,20.30
2018-07-04T05:51:27.564Z,20.50
2018-07-04T05:54:13.907Z,20.38
2018-07-04T05:57:00.295Z,20.78
2018-07-04T05:59:46.679Z,20.93
2018-07-04T06:02:33.087Z,21.57
2018-07-04T06:05:19.370Z,22.02
2018-07-04T06:08:05.874Z,21.95
2018-07-04T06:10:52.387Z,22.22
2018-07-04T06:13:38.832Z,23.02
2018-07-04T06:16:25.659Z,23.62
2018-07-04T06:19:12.313Z,25.04
2018-07-04T06:21:58.607Z,25.27
2018-07-04T06:24:45.463Z,26.04
2018-07-04T06:27:32.192Z,26.59
2018-07-04T06:30:18.522Z,27.18
2018-07-04T06:33:04.942Z,27.50
2018-07-04T06:35:51.458Z,27.94
2018-07-04T06:38:25.481Z,29.01
2018-07-04T06:40:53.351Z,29.26
2018-07-04T06:43:21.143Z,29.52
2018-07-04T06:45:48.915Z,29.97
2018-07-04T06:48:16.988Z,30.08
2018-07-04T06:50:44.867Z,29.78
2018-07-04T06:53:12.655Z,29.27
2018-07-04T06:55:40.734Z,27.83
2018-07-04T06:58:09.295Z,29.07
2018-07-04T07:00:37.070Z,29.96
2018-07-04T07:03:17.188Z,31.07
2018-07-04T07:06:03.867Z,31.57
2018-07-04T07:08:50.244Z,31.18
2018-07-04T07:11:36.660Z,32.08
2018-07-04T07:14:23.325Z,32.83
2018-07-04T07:17:09.667Z,32.91
2018-07-04T07:19:56.047Z,31.69
2018-07-04T07:22:43.191Z,29.91
2018-07-04T07:25:29.583Z,29.56
2018-07-04T07:28:16.127Z,30.80
2018-07-04T07:31:02.425Z,32.57
2018-07-04T07:33:49.080Z,32.83
2018-07-04T07:36:35.403Z,30.69
2018-07-04T07:39:22.383Z,30.65
2018-07-04T07:42:08.759Z,30.81
2018-07-04T07:44:55.229Z,32.33
2018-07-04T07:47:41.600Z,31.77
2018-07-04T07:50:28.303Z,30.35
2018-07-04T07:53:14.682Z,31.85
2018-07-04T07:56:01.047Z,31.42
2018-07-04T07:58:47.938Z,29.96
2018-07-04T08:01:34.232Z,29.50
2018-07-04T08:04:20.563Z,29.46
2018-07-04T08:07:07.295Z,29.93
2018-07-04T08:09:53.667Z,30.65
2018-07-04T08:12:40.031Z,30.75
2018-07-04T08:15:26.431Z,31.20
2018-07-04T08:18:12.891Z,30.70
2018-07-04T08:20:59.315Z,30.33
2018-07-04T08:23:45.568Z,29.09
2018-07-04T08:26:31.827Z,28.76
2018-07-04T08:29:18.211Z,28.64
2018-07-04T08:32:04.696Z,28.26
2018-07-04T08:34:51.275Z,28.64
2018-07-04T08:37:37.549Z,28.60
2018-07-04T08:40:23.799Z,28.54
2018-07-04T08:43:10.043Z,28.31
2018-07-04T08:45:56.516Z,27.29
2018-07-04T08:48:42.829Z,26.95
2018-07-04T08:51:29.199Z,27.11
2018-07-04T08:54:15.652Z,27.03
2018-07-04T08:57:02.146Z,25.39
2018-07-04T08:59:48.647Z,24.62
2018-07-04T09:02:35.335Z,24.86
2018-07-04T09:05:21.743Z,25.64
2018-07-04T09:08:08.171Z,26.66
2018-07-04T09:10:54.583Z,27.36
2018-07-04T09:13:41.115Z,28.11
2018-07-04T09:16:27.504Z,28.50
2018-07-04T09:19:13.841Z,26.74
2018-07-04T09:22:00.159Z,26.45
2018-07-04T09:24:46.571Z,26.41
2018-07-04T09:27:32.927Z,25.88
2018-07-04T09:30:19.863Z,25.10
2018-07-04T09:33:06.479Z,24.51
2018-07-04T09:35:52.856Z,23.92
2018-07-04T09:38:39.822Z,23.42
2018-07-04T09:41:26.448Z,22.41
2018-07-04T09:44:12.819Z,20.80
2018-07-04T09:46:59.410Z,19.95
2018-07-04T09:49:45.985Z,19.24
2018-07-04T09:52:32.268Z,19.36
2018-07-04T09:55:19.079Z,19.52
2018-07-04T09:58:05.258Z,19.60
2018-07-04T10:00:57.176Z,19.75
2018-07-04T10:03:44.363Z,19.88
2018-07-04T10:06:30.779Z,20.07
2018-07-04T10:09:17.159Z,20.33
2018-07-04T10:12:03.574Z,20.47
2018-07-04T10:14:50.108Z,20.59
2018-07-04T10:17:36.515Z,20.63
2018-07-04T10:20:23.078Z,21.00
2018-07-04T10:23:09.719Z,21.36
2018-07-04T10:25:56.061Z,21.71
2018-07-04T10:28:42.543Z,22.19
2018-07-04T10:31:28.819Z,22.43
2018-07-04T10:34:15.040Z,22.82
2018-07-04T10:37:01.423Z,23.63
2018-07-04T10:39:48.703Z,24.41
2018-07-04T10:42:35.468Z,24.78
2018-07-04T10:45:21.715Z,26.00
2018-07-04T10:48:08.148Z,26.28
2018-07-04T10:50:54.560Z,26.15
2018-07-04T10:53:41.036Z,26.40
2018-07-04T10:56:27.423Z,27.34
2018-07-04T10:59:13.694Z,28.40
2018-07-04T11:02:00.719Z,30.28
2018-07-04T11:04:47.291Z,30.77
2018-07-04T11:07:33.723Z,31.36
2018-07-04T11:10:20.199Z,30.98
2018-07-04T11:13:06.827Z,30.36
2018-07-04T11:15:53.148Z,29.77
2018-07-04T11:18:39.551Z,29.84
2018-07-04T11:21:26.131Z,29.72
2018-07-04T11:24:12.667Z,29.66
2018-07-04T11:26:58.987Z,29.04
2018-07-04T11:29:45.299Z,28.13
2018-07-04T11:32:31.879Z,27.62
2018-07-04T11:35:18.323Z,27.62
2018-07-04T11:38:04.786Z,27.40
2018-07-04T11:40:51.244Z,26.84
2018-07-04T11:43:37.907Z,26.76
2018-07-04T11:46:11.823Z,26.91
2018-07-04T11:48:39.585Z,26.50
2018-07-04T11:51:07.475Z,26.74
2018-07-04T11:53:35.654Z,26.99
2018-07-04T11:56:03.454Z,26.98
2018-07-04T11:58:31.220Z,26.40
2018-07-04T12:00:59.004Z,26.49
2018-07-04T12:03:26.776Z,26.21
2018-07-04T12:06:06.919Z,26.30
2018-07-04T12:08:41.128Z,26.85
2018-07-04T12:11:08.912Z,26.42
2018-07-04T12:13:36.899Z,26.29
2018-07-04T12:16:04.686Z,25.75
2018-07-04T12:18:32.455Z,25.60
2018-07-04T12:21:00.454Z,25.38
2018-07-04T12:23:28.191Z,25.55
2018-07-04T12:25:55.971Z,25.53
2018-07-04T12:28:23.743Z,25.38
2018-07-04T12:30:51.535Z,24.74
2018-07-04T12:33:19.407Z,24.57
2018-07-04T12:35:47.192Z,24.39
2018-07-04T12:38:14.960Z,24.34
2018-07-04T12:40:42.722Z,24.27
2018-07-04T12:43:10.511Z,24.28
2018-07-04T12:45:39.584Z,24.67
2018-07-04T12:48:06.081Z,24.92
2018-07-04T12:50:35.055Z,24.60
2018-07-04T12:53:02.834Z,24.06
2018-07-04T12:55:44.104Z,23.80
2018-07-04T12:58:30.547Z,23.55
2018-07-04T13:01:17.315Z,23.63
2018-07-04T13:04:03.752Z,24.04
2018-07-04T13:06:50.245Z,24.14
2018-07-04T13:09:36.575Z,24.56
2018-07-04T13:12:22.992Z,25.18
2018-07-04T13:15:09.673Z,25.02
2018-07-04T13:17:56.082Z,25.55
2018-07-04T13:20:42.636Z,25.21
2018-07-04T13:23:29.016Z,25.16
2018-07-04T13:26:15.367Z,25.89
2018-07-04T13:29:01.827Z,26.07
2018-07-04T13:31:48.195Z,27.07
2018-07-04T13:34:34.604Z,26.97
2018-07-04T13:37:21.047Z,27.07
2018-07-04T13:40:07.627Z,26.91
2018-07-04T13:42:53.972Z,27.20
2018-07-04T13:45:40.863Z,27.68
2018-07-04T13:48:27.691Z,27.92
2018-07-04T13:51:13.968Z,28.71
2018-07-04T13:54:00.379Z,30.38
2018-07-04T13:56:46.940Z,30.97
2018-07-04T13:59:33.179Z,30.99
2018-07-04T14:02:19.767Z,29.06
2018-07-04T14:05:06.100Z,28.98
2018-07-04T14:07:52.992Z,28.09
2018-07-04T14:10:39.451Z,27.14
2018-07-04T14:13:25.723Z,26.95
2018-07-04T14:16:12.098Z,27.08
2018-07-04T14:18:58.479Z,26.87
2018-07-04T14:21:44.998Z,26.38
2018-07-04T14:24:31.364Z,25.93
2018-07-04T14:27:17.787Z,24.95
2018-07-04T14:30:04.168Z,24.11
2018-07-04T14:32:50.708Z,23.69
2018-07-04T14:35:37.392Z,23.44
2018-07-04T14:38:23.831Z,23.24
2018-07-04T14:41:10.196Z,23.04
2018-07-04T14:43:56.647Z,22.75
2018-07-04T14:46:43.014Z,22.59
2018-07-04T14:49:29.371Z,22.57
2018-07-04T14:52:15.767Z,22.48
2018-07-04T14:55:02.203Z,22.37
2018-07-04T14:57:48.779Z,22.17
2018-07-04T15:00:35.071Z,21.75
2018-07-04T15:03:21.511Z,21.69
2018-07-04T15:06:08.043Z,21.53
2018-07-04T15:08:54.430Z,21.35
2018-07-04T15:11:40.938Z,21.31
2018-07-04T15:14:27.511Z,21.10
2018-07-04T15:17:14.823Z,21.04
2018-07-04T15:20:01.295Z,21.01
2018-07-04T15:22:47.608Z,21.04
2018-07-04T15:25:33.966Z,21.10
2018-07-04T15:28:20.351Z,20.81
2018-07-04T15:31:07.055Z,20.77
2018-07-04T15:33:53.594Z,20.53
2018-07-04T15:36:39.926Z,20.38
2018-07-04T15:39:26.341Z,20.14
2018-07-04T15:42:12.711Z,19.83
2018-07-04T15:44:59.123Z,19.81
2018-07-04T15:47:45.507Z,19.83
2018-07-04T15:50:31.999Z,19.88
2018-07-04T15:53:18.467Z,19.77
2018-07-04T15:56:05.344Z,19.74
2018-07-04T15:58:52.043Z,19.46
2018-07-04T16:01:38.327Z,19.57
2018-07-04T16:04:24.651Z,19.66
2018-07-04T16:07:11.111Z,19.51
2018-07-04T16:09:57.544Z,19.59
2018-07-04T16:12:44.217Z,19.69
2018-07-04T16:15:30.907Z,19.86
2018-07-04T16:18:17.307Z,19.80
2018-07-04T16:21:03.703Z,19.70
2018-07-04T16:23:50.255Z,19.75
2018-07-04T16:26:36.652Z,19.74
2018-07-04T16:29:23.040Z,19.83
2018-07-04T16:32:09.411Z,19.72
2018-07-04T16:34:55.777Z,19.89
2018-07-04T16:37:42.135Z,19.98
2018-07-04T16:40:28.723Z,19.97
2018-07-04T16:43:15.517Z,20.23
2018-07-04T16:46:01.731Z,20.36
2018-07-04T16:48:48.322Z,20.43
2018-07-04T16:51:34.776Z,20.76
2018-07-04T16:54:21.179Z,21.08
2018-07-04T16:57:07.580Z,21.26
2018-07-04T16:59:53.974Z,21.28
2018-07-04T17:02:40.437Z,21.38
2018-07-04T17:05:26.923Z,21.26
2018-07-04T17:08:13.259Z,21.53
2018-07-04T17:10:59.626Z,21.53
2018-07-04T17:13:46.075Z,21.68
2018-07-04T17:16:32.994Z,21.78
2018-07-04T17:19:19.787Z,21.52
2018-07-04T17:22:06.199Z,21.29
2018-07-04T17:24:52.619Z,21.58
2018-07-04T17:27:39.051Z,21.81
2018-07-04T17:30:25.552Z,22.15
2018-07-04T17:33:12.435Z,22.49
2018-07-04T17:35:58.970Z,22.52
2018-07-04T17:38:47.372Z,22.78
2018-07-04T17:41:33.952Z,22.26
2018-07-04T17:44:21.341Z,22.32
2018-07-04T17:47:07.608Z,22.20
2018-07-04T17:49:54.088Z,21.82
2018-07-04T17:52:40.432Z,22.09
2018-07-04T17:55:26.646Z,22.55
2018-07-04T17:58:12.962Z,22.86
2018-07-04T18:00:59.180Z,23.08
2018-07-04T18:03:45.342Z,23.31
2018-07-04T18:06:31.667Z,23.37
2018-07-04T18:09:20.486Z,23.45
2018-07-04T18:12:06.893Z,23.42
2018-07-04T18:14:53.171Z,23.46
2018-07-04T18:17:39.510Z,23.33
2018-07-04T18:20:25.843Z,23.16
2018-07-04T18:23:12.096Z,23.05
2018-07-04T18:25:58.475Z,23.15
2018-07-04T18:28:45.088Z,23.05
2018-07-04T18:31:31.823Z,23.04
2018-07-04T18:34:18.183Z,22.93
2018-07-04T18:37:04.627Z,22.76
2018-07-04T18:39:50.986Z,22.40
2018-07-04T18:42:37.399Z,22.23
2018-07-04T18:45:23.803Z,22.03
2018-07-04T18:48:10.220Z,21.72
2018-07-04T18:50:56.698Z,21.46
2018-07-04T18:53:43.154Z,21.36
2018-07-04T18:56:29.434Z,21.04
2018-07-04T18:59:15.883Z,20.96
2018-07-04T19:02:02.247Z,20.74
2018-07-04T19:04:48.588Z,20.63
2018-07-04T19:07:37.039Z,20.57
2018-07-04T19:10:23.379Z,20.30
2018-07-04T19:13:09.943Z,20.10
2018-07-04T19:15:57.034Z,19.94
2018-07-04T19:18:43.847Z,19.70
2018-07-04T19:21:30.259Z,19.57
2018-07-04T19:24:16.625Z,19.27
2018-07-04T19:27:03.016Z,19.12
2018-07-04T19:29:49.379Z,19.08
2018-07-04T19:32:35.799Z,18.90
2018-07-04T19:35:22.207Z,18.73
2018-07-04T19:38:08.514Z,18.60
2018-07-04T19:40:55.044Z,18.56
2018-07-04T19:43:41.747Z,18.45
2018-07-04T19:46:28.378Z,18.42
2018-07-04T19:49:14.772Z,18.19
2018-07-04T19:52:01.112Z,18.07
2018-07-04T19:54:47.647Z,18.05
2018-07-04T19:57:34.027Z,18.09
2018-07-04T20:00:20.439Z,18.12
2018-07-04T20:03:07.239Z,18.05
2018-07-04T20:05:53.648Z,17.91
2018-07-04T20:08:40.016Z,17.89
2018-07-04T20:11:26.420Z,17.73
2018-07-04T20:14:12.753Z,17.64
2018-07-04T20:16:59.218Z,17.57
2018-07-04T20:19:46.128Z,17.62
2018-07-04T20:22:32.475Z,17.51
2018-07-04T20:25:19.059Z,17.54
2018-07-04T20:28:06.027Z,17.36
2018-07-04T20:30:52.799Z,17.24
2018-07-04T20:33:39.216Z,17.20
2018-07-04T20:36:25.607Z,17.20
2018-07-04T20:39:11.932Z,17.13
2018-07-04T20:41:58.532Z,17.14
2018-07-04T20:44:44.925Z,17.06
2018-07-04T20:47:31.343Z,16.91
2018-07-04T20:50:17.746Z,16.92
2018-07-04T20:53:04.923Z,16.92
2018-07-04T20:55:51.534Z,16.95
2018-07-04T20:58:37.827Z,17.00
2018-07-04T21:01:24.257Z,16.98
2018-07-04T21:04:10.647Z,16.97
2018-07-04T21:06:57.098Z,16.71
2018-07-04T21:09:44.064Z,16.60
2018-07-04T21:12:30.339Z,16.59
2018-07-04T21:15:16.696Z,16.35
2018-07-04T21:18:03.145Z,16.26
2018-07-04T21:20:49.490Z,16.21
2018-07-04T21:23:35.970Z,16.14
2018-07-04T21:26:22.495Z,16.09
2018-07-04T21:29:08.915Z,16.02
2018-07-04T21:31:55.356Z,15.94
2018-07-04T21:34:41.726Z,15.86
2018-07-04T21:37:28.502Z,15.82
2018-07-04T21:40:14.834Z,15.88
2018-07-04T21:43:01.276Z,15.80
2018-07-04T21:45:47.879Z,15.86
2018-07-04T21:48:34.233Z,15.81
2018-07-04T21:51:20.674Z,15.72
2018-07-04T21:54:06.998Z,15.76
2018-07-04T21:56:53.515Z,15.61
2018-07-04T21:59:40.118Z,15.58
2018-07-04T22:02:26.580Z,15.72
2018-07-04T22:05:13.063Z,15.67
2018-07-04T22:08:00.155Z,15.55
2018-07-04T22:10:46.879Z,15.56
2018-07-04T22:13:33.266Z,15.58
2018-07-04T22:16:20.175Z,15.54
2018-07-04T22:19:06.443Z,15.48
2018-07-04T22:21:52.831Z,15.45
2018-07-04T22:24:39.327Z,15.35
2018-07-04T22:27:25.719Z,15.30
2018-07-04T22:30:12.147Z,15.31
2018-07-04T22:32:58.420Z,15.27
2018-07-04T22:35:44.804Z,15.32
2018-07-04T22:38:31.499Z,15.26
2018-07-04T22:41:18.318Z,15.19
2018-07-04T22:44:04.739Z,15.15
2018-07-04T22:46:50.975Z,15.07
2018-07-04T22:49:37.387Z,15.04
2018-07-04T22:52:23.764Z,14.98
2018-07-04T22:55:10.059Z,15.01
2018-07-04T22:57:56.447Z,15.00
2018-07-04T23:00:43.235Z,15.00
2018-07-04T23:03:29.900Z,14.96
2018-07-04T23:06:16.958Z,15.02
2018-07-04T23:09:03.631Z,14.97
2018-07-04T23:11:51.075Z,14.88
2018-07-04T23:14:37.806Z,14.96
2018-07-04T23:17:24.187Z,14.96
2018-07-04T23:20:10.676Z,14.96
2018-07-04T23:22:56.931Z,14.87
2018-07-04T23:25:43.315Z,14.85
2018-07-04T23:28:30.089Z,14.88
2018-07-04T23:31:16.839Z,14.90
2018-07-04T23:34:03.344Z,14.87
2018-07-04T23:36:49.762Z,14.83
2018-07-04T23:39:36.159Z,14.81
2018-07-04T23:42:22.547Z,14.84
2018-07-04T23:45:09.193Z,14.89
2018-07-04T23:47:55.531Z,14.87
2018-07-04T23:50:41.869Z,14.94
2018-07-04T23:53:28.347Z,14.96
2018-07-04T23:56:14.767Z,14.82
2018-07-04T23:59:01.155Z,14.86
